sensor_id;sensor_type;location;lat;lon;timestamp;pressure;altitude;pressure_sealevel;temperature;humidity
15568;BME280;7885;42.596;23.044;2023-12-07T00:01:07;92540.53;;;6.95;100.00
15568;BME280;7885;42.596;23.044;2023-12-07T00:03:34;92542.88;;;6.93;100.00
15568;BME280;7885;42.596;23.044;2023-12-07T00:06:01;92550.22;;;6.96;100.00
15568;BME280;7885;42.596;23.044;2023-12-07T00:08:28;92554.44;;;6.93;100.00
15568;BME280;7885;42.596;23.044;2023-12-07T00:14:17;92552.13;;;6.92;100.00
15568;BME280;7885;42.596;23.044;2023-12-07T00:16:44;92539.72;;;6.84;100.00
15568;BME280;7885;42.596;23.044;2023-12-07T00:19:11;92554.44;;;6.93;100.00
15568;BME280;7885;42.596;23.044;2023-12-07T00:21:38;92544.78;;;6.89;100.00
15568;BME280;7885;42.596;23.044;2023-12-07T00:24:05;92558.69;;;6.91;100.00
15568;BME280;7885;42.596;23.044;2023-12-07T00:26:32;92548.97;;;6.83;100.00
15568;BME280;7885;42.596;23.044;2023-12-07T00:28:59;92557.56;;;6.95;100.00
15568;BME280;7885;42.596;23.044;2023-12-07T00:31:27;92556.00;;;6.94;100.00
15568;BME280;7885;42.596;23.044;2023-12-07T00:33:54;92560.25;;;6.95;100.00
15568;BME280;7885;42.596;23.044;2023-12-07T00:43:07;92556.34;;;6.86;100.00
15568;BME280;7885;42.596;23.044;2023-12-07T00:45:34;92554.41;;;6.86;100.00
15568;BME280;7885;42.596;23.044;2023-12-07T00:48:02;92560.59;;;6.87;100.00
15568;BME280;7885;42.596;23.044;2023-12-07T00:50:29;92537.41;;;6.79;100.00
15568;BME280;7885;42.596;23.044;2023-12-07T00:52:56;92529.63;;;6.74;100.00
15568;BME280;7885;42.596;23.044;2023-12-07T00:55:23;92543.97;;;6.81;100.00
15568;BME280;7885;42.596;23.044;2023-12-07T00:57:50;92547.44;;;6.82;100.00
15568;BME280;7885;42.596;23.044;2023-12-07T01:00:17;92544.34;;;6.80;100.00
15568;BME280;7885;42.596;23.044;2023-12-07T01:02:44;92559.78;;;6.83;100.00
15568;BME280;7885;42.596;23.044;2023-12-07T01:05:12;92557.50;;;6.81;100.00
15568;BME280;7885;42.596;23.044;2023-12-07T01:07:39;92556.72;;;6.81;100.00
15568;BME280;7885;42.596;23.044;2023-12-07T01:10:06;92556.72;;;6.81;100.00
15568;BME280;7885;42.596;23.044;2023-12-07T01:12:34;92559.78;;;6.83;100.00
15568;BME280;7885;42.596;23.044;2023-12-07T01:15:02;92553.25;;;6.84;100.00
15568;BME280;7885;42.596;23.044;2023-12-07T01:17:29;92553.66;;;6.86;100.00
15568;BME280;7885;42.596;23.044;2023-12-07T01:19:55;92545.88;;;6.81;100.00
15568;BME280;7885;42.596;23.044;2023-12-07T01:22:24;92566.00;;;6.87;100.00
15568;BME280;7885;42.596;23.044;2023-12-07T01:28:25;92550.53;;;6.84;100.00
15568;BME280;7885;42.596;23.044;2023-12-07T01:30:51;92547.84;;;6.84;100.00
15568;BME280;7885;42.596;23.044;2023-12-07T01:33:18;92543.56;;;6.83;100.00
15568;BME280;7885;42.596;23.044;2023-12-07T01:35:45;92535.06;;;6.81;100.00
15568;BME280;7885;42.596;23.044;2023-12-07T01:38:13;92531.22;;;6.82;100.00
15568;BME280;7885;42.596;23.044;2023-12-07T01:47:23;92540.47;;;6.77;100.00
15568;BME280;7885;42.596;23.044;2023-12-07T01:49:50;92536.59;;;6.75;100.00
15568;BME280;7885;42.596;23.044;2023-12-07T01:52:17;92528.09;;;6.76;100.00
15568;BME280;7885;42.596;23.044;2023-12-07T01:54:47;92542.41;;;6.80;100.00
15568;BME280;7885;42.596;23.044;2023-12-07T01:57:13;92525.75;;;6.71;100.00
15568;BME280;7885;42.596;23.044;2023-12-07T01:59:40;92537.38;;;6.75;100.00
15568;BME280;7885;42.596;23.044;2023-12-07T02:02:07;92535.84;;;6.78;100.00
15568;BME280;7885;42.596;23.044;2023-12-07T02:04:34;92523.06;;;6.71;100.00
15568;BME280;7885;42.596;23.044;2023-12-07T02:07:01;92513.78;;;6.69;100.00
15568;BME280;7885;42.596;23.044;2023-12-07T02:09:29;92523.09;;;6.78;100.00
15568;BME280;7885;42.596;23.044;2023-12-07T02:11:58;92537.38;;;6.75;100.00
15568;BME280;7885;42.596;23.044;2023-12-07T02:14:25;92528.88;;;6.77;100.00
15568;BME280;7885;42.596;23.044;2023-12-07T02:16:56;92527.34;;;6.76;100.00
15568;BME280;7885;42.596;23.044;2023-12-07T02:19:48;92529.66;;;6.77;100.00
15568;BME280;7885;42.596;23.044;2023-12-07T02:22:21;92525.00;;;6.74;100.00
15568;BME280;7885;42.596;23.044;2023-12-07T02:24:58;92519.97;;;6.73;100.00
15568;BME280;7885;42.596;23.044;2023-12-07T02:27:40;92527.34;;;6.76;100.00
15568;BME280;7885;42.596;23.044;2023-12-07T02:30:08;92531.19;;;6.75;100.00
15568;BME280;7885;42.596;23.044;2023-12-07T02:32:35;92529.63;;;6.74;100.00
15568;BME280;7885;42.596;23.044;2023-12-07T02:35:03;92529.66;;;6.77;100.00
15568;BME280;7885;42.596;23.044;2023-12-07T02:37:34;92523.44;;;6.73;100.00
15568;BME280;7885;42.596;23.044;2023-12-07T02:40:04;92527.34;;;6.83;100.00
15568;BME280;7885;42.596;23.044;2023-12-07T02:42:35;92500.22;;;6.58;100.00
15568;BME280;7885;42.596;23.044;2023-12-07T02:45:06;92521.16;;;6.75;100.00
15568;BME280;7885;42.596;23.044;2023-12-07T02:47:33;92534.69;;;6.82;100.00
15568;BME280;7885;42.596;23.044;2023-12-07T02:50:00;92533.94;;;6.82;100.00
15568;BME280;7885;42.596;23.044;2023-12-07T02:52:26;92518.81;;;6.74;100.00
15568;BME280;7885;42.596;23.044;2023-12-07T02:54:54;92526.19;;;6.84;100.00
15568;BME280;7885;42.596;23.044;2023-12-07T02:57:21;92532.75;;;6.83;100.00
15568;BME280;7885;42.596;23.044;2023-12-07T03:06:32;92538.91;;;6.80;100.00
15568;BME280;7885;42.596;23.044;2023-12-07T03:08:59;92525.38;;;6.76;100.00
15568;BME280;7885;42.596;23.044;2023-12-07T03:11:26;92521.94;;;6.76;100.00
15568;BME280;7885;42.596;23.044;2023-12-07T03:13:52;92529.25;;;6.75;100.00
15568;BME280;7885;42.596;23.044;2023-12-07T03:26:29;92529.59;;;6.67;100.00
15568;BME280;7885;42.596;23.044;2023-12-07T03:28:55;92538.13;;;6.69;100.00
15568;BME280;7885;42.596;23.044;2023-12-07T03:31:22;92496.69;;;6.50;100.00
15568;BME280;7885;42.596;23.044;2023-12-07T03:33:49;92518.44;;;6.72;100.00
15568;BME280;7885;42.596;23.044;2023-12-07T03:36:15;92522.66;;;6.69;100.00
15568;BME280;7885;42.596;23.044;2023-12-07T03:38:42;92539.31;;;6.75;100.00
15568;BME280;7885;42.596;23.044;2023-12-07T03:41:09;92533.47;;;6.73;100.00
15568;BME280;7885;42.596;23.044;2023-12-07T03:50:21;92536.19;;;6.73;100.00
15568;BME280;7885;42.596;23.044;2023-12-07T03:52:48;92517.19;;;6.62;100.00
15568;BME280;7885;42.596;23.044;2023-12-07T03:55:14;92533.88;;;6.71;100.00
15568;BME280;7885;42.596;23.044;2023-12-07T03:57:41;92503.28;;;6.56;100.00
15568;BME280;7885;42.596;23.044;2023-12-07T04:00:11;92522.66;;;6.73;100.00
15568;BME280;7885;42.596;23.044;2023-12-07T04:02:38;92518.41;;;6.68;100.00
15568;BME280;7885;42.596;23.044;2023-12-07T04:05:05;92538.16;;;6.76;100.00
15568;BME280;7885;42.596;23.044;2023-12-07T04:07:33;92525.00;;;6.74;100.00
15568;BME280;7885;42.596;23.044;2023-12-07T04:10:00;92535.06;;;6.77;100.00
15568;BME280;7885;42.596;23.044;2023-12-07T04:12:27;92541.25;;;6.78;100.00
15568;BME280;7885;42.596;23.044;2023-12-07T04:14:53;92551.25;;;6.74;100.00
15568;BME280;7885;42.596;23.044;2023-12-07T04:17:20;92548.94;;;6.72;100.00
15568;BME280;7885;42.596;23.044;2023-12-07T04:19:47;92545.44;;;6.65;100.00
15568;BME280;7885;42.596;23.044;2023-12-07T04:22:14;92540.78;;;6.58;100.00
15568;BME280;7885;42.596;23.044;2023-12-07T04:24:42;92536.47;;;6.53;100.00
15568;BME280;7885;42.596;23.044;2023-12-07T04:27:10;92545.78;;;6.59;100.00
15568;BME280;7885;42.596;23.044;2023-12-07T04:29:37;92558.16;;;6.60;100.00
15568;BME280;7885;42.596;23.044;2023-12-07T04:32:04;92532.19;;;6.45;100.00
15568;BME280;7885;42.596;23.044;2023-12-07T04:34:31;92548.84;;;6.54;100.00
15568;BME280;7885;42.596;23.044;2023-12-07T04:36:58;92549.63;;;6.58;100.00
15568;BME280;7885;42.596;23.044;2023-12-07T04:39:25;92558.16;;;6.60;100.00
15568;BME280;7885;42.596;23.044;2023-12-07T04:41:53;92561.25;;;6.63;100.00
15568;BME280;7885;42.596;23.044;2023-12-07T04:44:20;92553.91;;;6.63;100.00
15568;BME280;7885;42.596;23.044;2023-12-07T04:46:47;92554.69;;;6.64;100.00
15568;BME280;7885;42.596;23.044;2023-12-07T04:49:14;92541.13;;;6.56;100.00
15568;BME280;7885;42.596;23.044;2023-12-07T04:51:41;92558.56;;;6.66;100.00
15568;BME280;7885;42.596;23.044;2023-12-07T04:57:35;92553.53;;;6.65;100.00
15568;BME280;7885;42.596;23.044;2023-12-07T05:00:02;92558.19;;;6.68;100.00
15568;BME280;7885;42.596;23.044;2023-12-07T05:02:31;92561.28;;;6.70;100.00
15568;BME280;7885;42.596;23.044;2023-12-07T05:04:58;92562.03;;;6.67;100.00
15568;BME280;7885;42.596;23.044;2023-12-07T05:07:25;92555.06;;;6.66;100.00
15568;BME280;7885;42.596;23.044;2023-12-07T05:09:52;92548.91;;;6.62;100.00
15568;BME280;7885;42.596;23.044;2023-12-07T05:12:19;92564.72;;;6.63;100.00
15568;BME280;7885;42.596;23.044;2023-12-07T05:14:47;92563.56;;;6.60;100.00
15568;BME280;7885;42.596;23.044;2023-12-07T05:17:14;92569.00;;;6.68;100.00
15568;BME280;7885;42.596;23.044;2023-12-07T05:19:41;92559.72;;;6.62;100.00
15568;BME280;7885;42.596;23.044;2023-12-07T05:22:07;92567.44;;;6.67;100.00
15568;BME280;7885;42.596;23.044;2023-12-07T05:24:35;92564.34;;;6.61;100.00
15568;BME280;7885;42.596;23.044;2023-12-07T05:27:02;92561.97;;;6.56;100.00
15568;BME280;7885;42.596;23.044;2023-12-07T05:29:29;92557.31;;;6.49;100.00
15568;BME280;7885;42.596;23.044;2023-12-07T05:31:57;92577.84;;;6.57;100.00
15568;BME280;7885;42.596;23.044;2023-12-07T05:34:24;92580.50;;;6.50;100.00
15568;BME280;7885;42.596;23.044;2023-12-07T05:36:51;92578.16;;;6.49;100.00
15568;BME280;7885;42.596;23.044;2023-12-07T05:39:18;92575.88;;;6.51;100.00
15568;BME280;7885;42.596;23.044;2023-12-07T05:41:45;92584.38;;;6.56;100.00
15568;BME280;7885;42.596;23.044;2023-12-07T05:44:12;92580.06;;;6.48;100.00
15568;BME280;7885;42.596;23.044;2023-12-07T05:46:39;92585.13;;;6.53;100.00
15568;BME280;7885;42.596;23.044;2023-12-07T05:49:10;92586.69;;;6.54;100.00
15568;BME280;7885;42.596;23.044;2023-12-07T05:51:37;92592.09;;;6.54;100.00
15568;BME280;7885;42.596;23.044;2023-12-07T05:54:04;92587.44;;;6.48;100.00
15568;BME280;7885;42.596;23.044;2023-12-07T05:56:31;92601.41;;;6.60;100.00
15568;BME280;7885;42.596;23.044;2023-12-07T05:58:58;92604.50;;;6.63;100.00
15568;BME280;7885;42.596;23.044;2023-12-07T06:01:25;92592.09;;;6.54;100.00
15568;BME280;7885;42.596;23.044;2023-12-07T06:03:52;92582.81;;;6.52;100.00
15568;BME280;7885;42.596;23.044;2023-12-07T06:06:20;92601.78;;;6.63;100.00
15568;BME280;7885;42.596;23.044;2023-12-07T06:08:47;92598.72;;;6.64;100.00
15568;BME280;7885;42.596;23.044;2023-12-07T06:11:13;92595.66;;;6.69;100.00
15568;BME280;7885;42.596;23.044;2023-12-07T06:13:40;92600.69;;;6.71;100.00
15568;BME280;7885;42.596;23.044;2023-12-07T06:16:11;92605.31;;;6.70;100.00
15568;BME280;7885;42.596;23.044;2023-12-07T06:18:38;92607.28;;;6.73;100.00
15568;BME280;7885;42.596;23.044;2023-12-07T06:21:05;92604.19;;;6.71;100.00
15568;BME280;7885;42.596;23.044;2023-12-07T06:23:33;92609.19;;;6.73;100.00
15568;BME280;7885;42.596;23.044;2023-12-07T06:26:01;92578.97;;;6.56;100.00
15568;BME280;7885;42.596;23.044;2023-12-07T06:28:30;92611.56;;;6.78;100.00
15568;BME280;7885;42.596;23.044;2023-12-07T06:30:57;92608.09;;;6.81;100.00
15568;BME280;7885;42.596;23.044;2023-12-07T06:33:24;92617.00;;;6.85;100.00
15568;BME280;7885;42.596;23.044;2023-12-07T06:35:51;92613.13;;;6.82;100.00
15568;BME280;7885;42.596;23.044;2023-12-07T06:38:18;92617.75;;;6.82;100.00
15568;BME280;7885;42.596;23.044;2023-12-07T06:40:47;92618.88;;;6.74;100.00
15568;BME280;7885;42.596;23.044;2023-12-07T06:43:14;92615.41;;;6.77;100.00
15568;BME280;7885;42.596;23.044;2023-12-07T06:45:40;92613.06;;;6.72;100.00
15568;BME280;7885;42.596;23.044;2023-12-07T06:48:07;92609.94;;;6.70;100.00
15568;BME280;7885;42.596;23.044;2023-12-07T06:50:34;92611.13;;;6.69;100.00
15568;BME280;7885;42.596;23.044;2023-12-07T06:53:00;92627.78;;;6.78;100.00
15568;BME280;7885;42.596;23.044;2023-12-07T06:55:27;92630.84;;;6.76;100.00
15568;BME280;7885;42.596;23.044;2023-12-07T06:57:55;92632.38;;;6.74;100.00
15568;BME280;7885;42.596;23.044;2023-12-07T07:00:22;92623.09;;;6.71;100.00
15568;BME280;7885;42.596;23.044;2023-12-07T07:02:50;92626.63;;;6.75;100.00
15568;BME280;7885;42.596;23.044;2023-12-07T07:05:16;92631.94;;;6.65;100.00
15568;BME280;7885;42.596;23.044;2023-12-07T07:07:43;92623.75;;;6.50;100.00
15568;BME280;7885;42.596;23.044;2023-12-07T07:10:10;92638.34;;;6.42;100.00
15568;BME280;7885;42.596;23.044;2023-12-07T07:12:37;92644.22;;;6.51;100.00
15568;BME280;7885;42.596;23.044;2023-12-07T07:18:27;92632.53;;;6.37;100.00
15568;BME280;7885;42.596;23.044;2023-12-07T07:20:54;92645.31;;;6.43;100.00
15568;BME280;7885;42.596;23.044;2023-12-07T07:23:21;92643.75;;;6.42;100.00
15568;BME280;7885;42.596;23.044;2023-12-07T07:25:48;92645.63;;;6.35;100.00
15568;BME280;7885;42.596;23.044;2023-12-07T07:28:15;92654.19;;;6.40;100.00
15568;BME280;7885;42.596;23.044;2023-12-07T07:30:42;92640.53;;;6.26;100.00
15568;BME280;7885;42.596;23.044;2023-12-07T07:33:08;92656.00;;;6.29;100.00
15568;BME280;7885;42.596;23.044;2023-12-07T07:35:36;92658.75;;;6.33;100.00
15568;BME280;7885;42.596;23.044;2023-12-07T07:38:03;92651.72;;;6.25;100.00
15568;BME280;7885;42.596;23.044;2023-12-07T07:40:30;92656.78;;;6.30;100.00
15568;BME280;7885;42.596;23.044;2023-12-07T07:42:57;92669.91;;;6.31;100.00
15568;BME280;7885;42.596;23.044;2023-12-07T07:45:23;92654.41;;;6.25;100.00
15568;BME280;7885;42.596;23.044;2023-12-07T07:47:50;92664.44;;;6.24;100.00
15568;BME280;7885;42.596;23.044;2023-12-07T07:50:17;92670.28;;;6.26;100.00
15568;BME280;7885;42.596;23.044;2023-12-07T07:52:45;92676.78;;;6.22;100.00
15568;BME280;7885;42.596;23.044;2023-12-07T07:55:12;92676.81;;;6.25;100.00
15568;BME280;7885;42.596;23.044;2023-12-07T07:57:39;92683.03;;;6.29;100.00
15568;BME280;7885;42.596;23.044;2023-12-07T08:00:07;92662.09;;;6.19;100.00
15568;BME280;7885;42.596;23.044;2023-12-07T08:02:34;92683.41;;;6.31;100.00
15568;BME280;7885;42.596;23.044;2023-12-07T08:05:02;92654.31;;;6.14;100.00
15568;BME280;7885;42.596;23.044;2023-12-07T08:07:29;92682.22;;;6.25;100.00
15568;BME280;7885;42.596;23.044;2023-12-07T08:09:57;92690.03;;;6.34;100.00
15568;BME280;7885;42.596;23.044;2023-12-07T08:12:23;92693.09;;;6.32;100.00
15568;BME280;7885;42.596;23.044;2023-12-07T08:14:51;92697.69;;;6.28;100.00
15568;BME280;7885;42.596;23.044;2023-12-07T08:20:38;92698.03;;;6.23;100.00
15568;BME280;7885;42.596;23.044;2023-12-07T08:23:05;92698.44;;;6.25;100.00
15568;BME280;7885;42.596;23.044;2023-12-07T08:25:33;92693.03;;;6.25;100.00
15568;BME280;7885;42.596;23.044;2023-12-07T08:28:00;92693.78;;;6.22;100.00
15568;BME280;7885;42.596;23.044;2023-12-07T08:30:28;92700.25;;;6.14;100.00
15568;BME280;7885;42.596;23.044;2023-12-07T08:32:55;92702.16;;;6.10;100.00
15568;BME280;7885;42.596;23.044;2023-12-07T08:35:22;92705.97;;;6.05;100.00
15568;BME280;7885;42.596;23.044;2023-12-07T08:37:49;92712.00;;;5.92;100.00
15568;BME280;7885;42.596;23.044;2023-12-07T08:40:15;92716.28;;;5.93;100.00
15568;BME280;7885;42.596;23.044;2023-12-07T08:42:46;92713.50;;;5.86;100.00
15568;BME280;7885;42.596;23.044;2023-12-07T08:45:13;92712.69;;;5.85;100.00
15568;BME280;7885;42.596;23.044;2023-12-07T08:47:42;92721.72;;;5.96;100.00
15568;BME280;7885;42.596;23.044;2023-12-07T08:50:09;92725.59;;;5.99;100.00
15568;BME280;7885;42.596;23.044;2023-12-07T08:52:36;92723.63;;;5.96;100.00
15568;BME280;7885;42.596;23.044;2023-12-07T08:55:03;92726.31;;;5.96;100.00
15568;BME280;7885;42.596;23.044;2023-12-07T08:57:30;92728.28;;;5.99;100.00
15568;BME280;7885;42.596;23.044;2023-12-07T08:59:58;92723.63;;;5.96;100.00
15568;BME280;7885;42.596;23.044;2023-12-07T09:02:25;92728.28;;;5.99;100.00
15568;BME280;7885;42.596;23.044;2023-12-07T09:04:52;92731.00;;;5.99;100.00
15568;BME280;7885;42.596;23.044;2023-12-07T09:07:18;92720.94;;;5.96;100.00
15568;BME280;7885;42.596;23.044;2023-12-07T09:09:45;92707.25;;;5.82;100.00
15568;BME280;7885;42.596;23.044;2023-12-07T09:12:13;92728.94;;;5.89;100.00
15568;BME280;7885;42.596;23.044;2023-12-07T09:14:41;92717.53;;;5.73;100.00
15568;BME280;7885;42.596;23.044;2023-12-07T09:17:09;92724.13;;;5.75;100.00
15568;BME280;7885;42.596;23.044;2023-12-07T09:19:36;92723.34;;;5.75;100.00
15568;BME280;7885;42.596;23.044;2023-12-07T09:22:03;92719.44;;;5.69;100.00
15568;BME280;7885;42.596;23.044;2023-12-07T09:24:30;92716.31;;;5.67;100.00
15568;BME280;7885;42.596;23.044;2023-12-07T09:26:56;92730.25;;;5.69;100.00
15568;BME280;7885;42.596;23.044;2023-12-07T09:29:23;92723.28;;;5.68;100.00
15568;BME280;7885;42.596;23.044;2023-12-07T09:31:50;92736.81;;;5.71;100.00
15568;BME280;7885;42.596;23.044;2023-12-07T09:34:18;92727.06;;;5.63;100.00
15568;BME280;7885;42.596;23.044;2023-12-07T09:36:45;92716.00;;;5.42;100.00
15568;BME280;7885;42.596;23.044;2023-12-07T09:39:12;92733.75;;;5.43;100.00
15568;BME280;7885;42.596;23.044;2023-12-07T09:41:41;92728.66;;;5.34;100.00
15568;BME280;7885;42.596;23.044;2023-12-07T09:44:11;92730.97;;;5.36;100.00
15568;BME280;7885;42.596;23.044;2023-12-07T09:46:38;92737.56;;;5.38;100.00
15568;BME280;7885;42.596;23.044;2023-12-07T09:49:05;92729.88;;;5.40;100.00
15568;BME280;7885;42.596;23.044;2023-12-07T09:51:34;92726.44;;;5.43;100.00
15568;BME280;7885;42.596;23.044;2023-12-07T09:54:02;92718.25;;;5.36;100.00
15568;BME280;7885;42.596;23.044;2023-12-07T09:56:30;92722.53;;;5.37;100.00
15568;BME280;7885;42.596;23.044;2023-12-07T09:58:57;92732.25;;;5.45;100.00
15568;BME280;7885;42.596;23.044;2023-12-07T10:01:28;92732.19;;;5.42;100.00
15568;BME280;7885;42.596;23.044;2023-12-07T10:04:15;92734.94;;;5.45;100.00
15568;BME280;7885;42.596;23.044;2023-12-07T10:06:44;92733.03;;;5.46;100.00
15568;BME280;7885;42.596;23.044;2023-12-07T10:09:11;92730.19;;;5.35;100.00
15568;BME280;7885;42.596;23.044;2023-12-07T10:11:38;92732.16;;;5.38;100.00
15568;BME280;7885;42.596;23.044;2023-12-07T10:14:06;92714.34;;;5.30;100.00
15568;BME280;7885;42.596;23.044;2023-12-07T10:16:33;92710.16;;;5.36;100.00
15568;BME280;7885;42.596;23.044;2023-12-07T10:19:13;92723.78;;;5.47;100.00
15568;BME280;7885;42.596;23.044;2023-12-07T10:21:40;92719.53;;;5.46;100.00
15568;BME280;7885;42.596;23.044;2023-12-07T10:24:08;92721.44;;;5.45;100.00
15568;BME280;7885;42.596;23.044;2023-12-07T10:26:35;92715.66;;;5.43;100.00
15568;BME280;7885;42.596;23.044;2023-12-07T10:29:04;92712.22;;;5.46;100.00
15568;BME280;7885;42.596;23.044;2023-12-07T10:31:31;92725.06;;;5.56;100.00
15568;BME280;7885;42.596;23.044;2023-12-07T10:33:58;92711.16;;;5.54;100.00
15568;BME280;7885;42.596;23.044;2023-12-07T10:36:26;92722.41;;;5.60;100.00
15568;BME280;7885;42.596;23.044;2023-12-07T10:38:53;92718.63;;;5.65;100.00
15568;BME280;7885;42.596;23.044;2023-12-07T10:48:06;92722.81;;;5.62;100.00
15568;BME280;7885;42.596;23.044;2023-12-07T10:50:36;92726.28;;;5.63;100.00
15568;BME280;7885;42.596;23.044;2023-12-07T10:53:09;92730.56;;;5.64;100.00
15568;BME280;7885;42.596;23.044;2023-12-07T10:55:41;92726.25;;;5.59;100.00
15568;BME280;7885;42.596;23.044;2023-12-07T10:58:09;92729.31;;;5.57;100.00
15568;BME280;7885;42.596;23.044;2023-12-07T11:00:40;92728.22;;;5.62;100.00
15568;BME280;7885;42.596;23.044;2023-12-07T11:06:30;92723.00;;;5.46;100.00
15568;BME280;7885;42.596;23.044;2023-12-07T11:08:59;92723.75;;;5.43;100.00
15568;BME280;7885;42.596;23.044;2023-12-07T11:11:29;92721.44;;;5.45;100.00
15568;BME280;7885;42.596;23.044;2023-12-07T11:13:59;92726.44;;;5.43;100.00
15568;BME280;7885;42.596;23.044;2023-12-07T11:16:31;92728.47;;;5.50;100.00
15568;BME280;7885;42.596;23.044;2023-12-07T11:18:58;92724.56;;;5.47;100.00
15568;BME280;7885;42.596;23.044;2023-12-07T11:21:25;92722.94;;;5.39;100.00
15568;BME280;7885;42.596;23.044;2023-12-07T11:23:54;92710.56;;;5.38;100.00
15568;BME280;7885;42.596;23.044;2023-12-07T11:26:22;92716.41;;;5.40;100.00
15568;BME280;7885;42.596;23.044;2023-12-07T11:36:03;92720.53;;;5.31;100.00
15568;BME280;7885;42.596;23.044;2023-12-07T11:38:30;92715.78;;;5.24;100.00
15568;BME280;7885;42.596;23.044;2023-12-07T11:40:59;92712.69;;;5.22;100.00
15568;BME280;7885;42.596;23.044;2023-12-07T11:43:42;92706.59;;;5.29;100.00
15568;BME280;7885;42.596;23.044;2023-12-07T11:46:12;92706.56;;;5.25;100.00
15568;BME280;7885;42.596;23.044;2023-12-07T11:48:46;92717.34;;;5.25;100.00
15568;BME280;7885;42.596;23.044;2023-12-07T11:51:14;92717.03;;;5.30;100.00
15568;BME280;7885;42.596;23.044;2023-12-07T11:53:41;92709.72;;;5.31;100.00
15568;BME280;7885;42.596;23.044;2023-12-07T11:56:10;92710.34;;;5.21;100.00
15568;BME280;7885;42.596;23.044;2023-12-07T11:58:38;92706.09;;;5.20;100.00
15568;BME280;7885;42.596;23.044;2023-12-07T12:01:05;92695.91;;;5.06;100.00
15568;BME280;7885;42.596;23.044;2023-12-07T12:03:32;92692.69;;;4.97;100.00
15568;BME280;7885;42.596;23.044;2023-12-07T12:05:59;92711.50;;;4.93;100.00
15568;BME280;7885;42.596;23.044;2023-12-07T12:08:26;92698.41;;;4.92;100.00
15568;BME280;7885;42.596;23.044;2023-12-07T12:10:54;92701.50;;;4.94;100.00
15568;BME280;7885;42.596;23.044;2023-12-07T12:23:29;92705.38;;;4.93;100.00
15568;BME280;7885;42.596;23.044;2023-12-07T12:25:56;92706.59;;;4.99;100.00
15568;BME280;7885;42.596;23.044;2023-12-07T12:28:23;92706.22;;;5.00;100.00
15568;BME280;7885;42.596;23.044;2023-12-07T12:30:50;92699.72;;;5.05;100.00
15568;BME280;7885;42.596;23.044;2023-12-07T12:33:18;92693.22;;;5.06;100.00
15568;BME280;7885;42.596;23.044;2023-12-07T12:35:44;92701.41;;;5.13;100.00
15568;BME280;7885;42.596;23.044;2023-12-07T12:38:12;92709.53;;;5.17;100.00
15568;BME280;7885;42.596;23.044;2023-12-07T12:40:40;92711.13;;;5.21;100.00
15568;BME280;7885;42.596;23.044;2023-12-07T12:43:07;92714.25;;;5.23;100.00
15568;BME280;7885;42.596;23.044;2023-12-07T12:45:36;92710.22;;;5.10;100.00
15568;BME280;7885;42.596;23.044;2023-12-07T12:48:03;92709.78;;;5.08;100.00
15568;BME280;7885;42.596;23.044;2023-12-07T13:07:21;92735.00;;;4.67;100.00
15568;BME280;7885;42.596;23.044;2023-12-07T13:09:49;92734.59;;;4.65;100.00
15568;BME280;7885;42.596;23.044;2023-12-07T13:12:16;92739.59;;;4.66;100.00
15568;BME280;7885;42.596;23.044;2023-12-07T13:14:43;92732.28;;;4.67;100.00
15568;BME280;7885;42.596;23.044;2023-12-07T13:17:09;92731.09;;;4.64;100.00
15568;BME280;7885;42.596;23.044;2023-12-07T13:19:36;92739.25;;;4.68;100.00
15568;BME280;7885;42.596;23.044;2023-12-07T13:22:03;92738.94;;;4.73;100.00
15568;BME280;7885;42.596;23.044;2023-12-07T13:24:31;92735.84;;;4.71;100.00
15568;BME280;7885;42.596;23.044;2023-12-07T13:26:58;92734.25;;;4.70;100.00
15568;BME280;7885;42.596;23.044;2023-12-07T13:29:25;92733.53;;;4.73;100.00
15568;BME280;7885;42.596;23.044;2023-12-07T13:31:52;92738.53;;;4.71;100.00
15568;BME280;7885;42.596;23.044;2023-12-07T13:34:19;92732.72;;;4.69;100.00
15568;BME280;7885;42.596;23.044;2023-12-07T13:36:46;92732.72;;;4.69;100.00
15568;BME280;7885;42.596;23.044;2023-12-07T13:39:13;92743.91;;;4.71;100.00
15568;BME280;7885;42.596;23.044;2023-12-07T13:41:42;92750.44;;;4.70;100.00
15568;BME280;7885;42.596;23.044;2023-12-07T13:44:08;92750.38;;;4.66;100.00
15568;BME280;7885;42.596;23.044;2023-12-07T13:46:35;92750.22;;;4.55;100.00
15568;BME280;7885;42.596;23.044;2023-12-07T13:49:02;92742.72;;;4.45;100.00
15568;BME280;7885;42.596;23.044;2023-12-07T13:51:29;92753.56;;;4.49;100.00
15568;BME280;7885;42.596;23.044;2023-12-07T13:53:56;92759.38;;;4.51;100.00
15568;BME280;7885;42.596;23.044;2023-12-07T13:56:22;92741.53;;;4.43;100.00
15568;BME280;7885;42.596;23.044;2023-12-07T13:58:51;92768.66;;;4.53;100.00
15568;BME280;7885;42.596;23.044;2023-12-07T14:01:18;92768.19;;;4.48;100.00
15568;BME280;7885;42.596;23.044;2023-12-07T14:03:45;92768.53;;;4.46;100.00
15568;BME280;7885;42.596;23.044;2023-12-07T14:06:20;92766.97;;;4.45;100.00
15568;BME280;7885;42.596;23.044;2023-12-07T14:08:47;92754.53;;;4.37;100.00
15568;BME280;7885;42.596;23.044;2023-12-07T14:11:14;92769.28;;;4.43;100.00
15568;BME280;7885;42.596;23.044;2023-12-07T14:13:40;92773.94;;;4.46;100.00
15568;BME280;7885;42.596;23.044;2023-12-07T14:16:09;92773.47;;;4.41;100.00
15568;BME280;7885;42.596;23.044;2023-12-07T14:18:35;92773.09;;;4.42;100.00
15568;BME280;7885;42.596;23.044;2023-12-07T14:21:02;92774.66;;;4.43;100.00
15568;BME280;7885;42.596;23.044;2023-12-07T14:23:29;92765.31;;;4.37;100.00
15568;BME280;7885;42.596;23.044;2023-12-07T14:25:56;92786.22;;;4.44;100.00
15568;BME280;7885;42.596;23.044;2023-12-07T14:28:24;92789.31;;;4.46;100.00
15568;BME280;7885;42.596;23.044;2023-12-07T14:30:53;92789.31;;;4.46;100.00
15568;BME280;7885;42.596;23.044;2023-12-07T14:33:23;92783.47;;;4.40;100.00
15568;BME280;7885;42.596;23.044;2023-12-07T14:35:49;92774.53;;;4.36;100.00
15568;BME280;7885;42.596;23.044;2023-12-07T14:38:16;92785.38;;;4.40;100.00
15568;BME280;7885;42.596;23.044;2023-12-07T14:40:43;92775.97;;;4.30;100.00